Time;durP1;ratioP1;P1;durP2;ratioP2;P2;SDS_P1;SDS_P2;PMS_P1;PMS_P2;Temp;Humidity;BMP_temperature;BMP_pressure;BME280_temperature;BME280_humidity;BME280_pressure;Samples;Min_cycle;Max_cycle;Signal;HPM_P1;HPM_P2
2023/03/03 00:00:46;;;;;;;40.88;24.75;;;;;;;4.02;59.45;96793.84;4975421;28;20047;-79
2023/03/03 00:03:17;;;;;;;37.75;23.77;;;;;;;3.97;60.23;96783.13;4974279;28;20046;-79
2023/03/03 00:05:45;;;;;;;39.13;23.33;;;;;;;3.95;60.12;96784.22;4974160;28;20058;-81
2023/03/03 00:11:02;;;;;;;40.92;24.83;;;;;;;3.87;60.25;96793.47;5010869;28;20500;-77
2023/03/03 00:13:31;;;;;;;41.47;25.02;;;;;;;3.90;60.58;96792.38;5012743;28;20053;-77
2023/03/03 00:16:14;;;;;;;40.65;24.17;;;;;;;3.95;61.34;96779.06;5012572;28;20145;-77
2023/03/03 00:18:42;;;;;;;;;;;;;;;3.98;60.89;96789.94;5008128;28;20077;-77
2023/03/03 00:21:28;;;;;;;36.28;21.80;;;;;;;4.01;61.17;96784.50;4992959;28;20016;-77
2023/03/03 00:24:03;;;;;;;42.22;25.42;;;;;;;4.02;60.84;96782.72;4992887;28;20050;-77
2023/03/03 00:26:37;;;;;;;40.05;24.13;;;;;;;4.02;60.77;96780.94;4993015;28;20129;-77
2023/03/03 00:29:26;;;;;;;42.80;26.42;;;;;;;4.03;61.33;96790.34;4992369;28;20137;-77
2023/03/03 00:31:54;;;;;;;46.97;27.35;;;;;;;4.02;60.23;96796.44;4996924;28;20424;-77
2023/03/03 00:34:26;;;;;;;42.55;24.30;;;;;;;3.94;61.26;96798.91;4996723;28;20097;-77
2023/03/03 00:36:56;;;;;;;37.60;23.80;;;;;;;3.96;60.88;96791.00;4996363;28;20486;-77
2023/03/03 00:39:29;;;;;;;40.55;25.33;;;;;;;3.98;61.52;96797.69;4995668;28;20078;-77
2023/03/03 00:41:59;;;;;;;44.03;26.13;;;;;;;4.01;60.87;96794.81;4996354;28;20056;-77
2023/03/03 00:44:39;;;;;;;43.15;25.20;;;;;;;4.01;61.22;96799.16;4996484;28;20081;-77
2023/03/03 00:47:26;;;;;;;41.55;24.30;;;;;;;3.98;61.84;96804.59;4996113;28;20513;-77
2023/03/03 00:50:21;;;;;;;45.25;26.00;;;;;;;3.97;61.56;96797.81;4995309;28;20061;-77
2023/03/03 00:52:59;;;;;;;40.55;24.90;;;;;;;3.94;61.51;96788.56;4996153;28;20571;-77
2023/03/03 00:55:26;;;;;;;42.88;24.95;;;;;;;3.94;60.85;96790.34;4995994;28;20496;-77
2023/03/03 00:57:55;;;;;;;45.45;26.30;;;;;;;3.89;61.20;96791.56;4995599;28;20047;-76
2023/03/03 01:00:23;;;;;;;45.90;26.25;;;;;;;3.83;61.45;96791.28;4995754;28;20050;-77
2023/03/03 01:02:51;;;;;;;47.17;24.80;;;;;;;3.82;61.19;96794.81;4996065;28;20054;-77
2023/03/03 01:05:20;;;;;;;46.38;27.25;;;;;;;3.81;61.81;96788.84;4996076;28;20100;-77
2023/03/03 01:07:48;;;;;;;47.60;27.15;;;;;;;3.84;61.64;96792.91;4995207;28;20137;-77
2023/03/03 01:10:15;;;;;;;42.85;25.30;;;;;;;3.89;61.85;96790.72;4995654;28;20054;-77
2023/03/03 01:12:43;;;;;;;45.78;26.45;;;;;;;3.93;61.26;96786.94;4995737;28;20457;-77
2023/03/03 01:15:14;;;;;;;43.50;26.33;;;;;;;3.95;61.57;96785.03;4995636;28;20137;-78
2023/03/03 01:17:42;;;;;;;48.55;24.67;;;;;;;3.97;61.64;96785.72;4995552;28;20523;-77
2023/03/03 01:20:12;;;;;;;45.47;26.83;;;;;;;3.98;61.26;96779.63;4995203;28;20056;-77
2023/03/03 01:22:40;;;;;;;49.78;28.25;;;;;;;4.01;61.23;96778.53;4995906;28;20409;-77
2023/03/03 01:25:08;;;;;;;53.78;28.45;;;;;;;4.01;61.51;96774.16;4996498;28;20056;-77
2023/03/03 01:27:36;;;;;;;47.05;28.23;;;;;;;3.98;61.78;96768.44;4996272;28;20077;-77
2023/03/03 01:30:04;;;;;;;46.53;28.40;;;;;;;3.95;61.73;96764.38;4995369;28;20420;-77
2023/03/03 01:32:34;;;;;;;52.45;28.92;;;;;;;3.94;62.23;96772.28;4995533;28;20046;-77
2023/03/03 01:35:01;;;;;;;47.25;26.88;;;;;;;3.96;61.75;96766.03;4995797;28;20153;-77
2023/03/03 01:37:29;;;;;;;51.03;28.35;;;;;;;3.98;61.75;96769.28;4995839;28;20088;-77
2023/03/03 01:39:57;;;;;;;52.92;29.02;;;;;;;3.98;61.78;96768.44;4994783;28;20128;-77
2023/03/03 01:42:28;;;;;;;49.80;28.83;;;;;;;4.01;62.21;96771.59;4994607;28;20064;-77
2023/03/03 01:45:18;;;;;;;50.40;28.48;;;;;;;4.04;62.90;96767.91;4995784;28;20053;-77
2023/03/03 01:47:53;;;;;;;47.85;26.10;;;;;;;4.06;62.53;96761.66;4994756;28;20504;-77
2023/03/03 01:50:38;;;;;;;44.85;25.75;;;;;;;4.10;62.33;96770.75;4994834;28;20046;-77
2023/03/03 01:53:13;;;;;;;40.28;24.52;;;;;;;4.17;63.27;96767.63;4995079;28;20138;-77
2023/03/03 01:55:43;;;;;;;42.92;26.05;;;;;;;4.20;61.76;96768.19;4995144;28;20492;-77
2023/03/03 01:58:14;;;;;;;43.95;25.27;;;;;;;4.27;62.85;96768.44;4994340;28;20050;-77
2023/03/03 02:00:46;;;;;;;40.17;25.33;;;;;;;4.37;62.01;96769.22;4994775;28;20054;-77
2023/03/03 02:03:15;;;;;;;41.25;24.02;;;;;;;4.44;61.60;96759.16;4995199;28;20050;-77
2023/03/03 02:05:43;;;;;;;42.95;26.13;;;;;;;4.42;60.98;96759.31;4994665;28;20046;-77
2023/03/03 02:08:16;;;;;;;49.75;28.77;;;;;;;4.37;61.36;96769.22;4994136;28;20062;-77
2023/03/03 02:10:45;;;;;;;47.78;28.45;;;;;;;4.34;61.23;96759.19;4994893;28;20050;-77
2023/03/03 02:13:14;;;;;;;49.40;25.85;;;;;;;4.32;61.43;96756.72;4994809;28;20055;-77
2023/03/03 02:15:41;;;;;;;48.72;27.92;;;;;;;4.34;61.43;96754.03;4994782;28;20341;-77
2023/03/03 02:18:13;;;;;;;53.13;28.80;;;;;;;4.33;61.18;96758.38;4994250;28;20046;-77
2023/03/03 02:20:53;;;;;;;47.45;27.83;;;;;;;4.31;61.58;96744.78;4994869;28;20061;-77
2023/03/03 02:23:26;;;;;;;50.88;29.17;;;;;;;4.32;61.06;96745.59;4996111;28;20114;-77
2023/03/03 02:26:05;;;;;;;51.20;29.75;;;;;;;4.36;61.53;96754.69;4997926;28;20476;-78
2023/03/03 02:28:35;;;;;;;50.67;28.40;;;;;;;4.36;61.03;96752.13;4994672;28;20497;-77
2023/03/03 02:31:03;;;;;;;42.15;26.35;;;;;;;4.39;62.10;96748.44;4994684;28;20141;-77
2023/03/03 02:33:31;;;;;;;44.28;26.85;;;;;;;4.42;61.68;96746.41;4994481;28;20057;-77
2023/03/03 02:35:58;;;;;;;48.83;29.10;;;;;;;4.39;61.49;96738.91;5017404;28;20065;-77
2023/03/03 02:38:29;;;;;;;42.47;27.17;;;;;;;4.40;61.92;96748.31;5016660;28;20053;-77
2023/03/03 02:41:08;;;;;;;47.42;27.50;;;;;;;4.45;62.28;96745.31;5017124;28;20038;-76
2023/03/03 02:43:43;;;;;;;45.85;26.73;;;;;;;4.49;61.34;96747.47;5017090;28;20061;-77
2023/03/03 02:46:11;;;;;;;48.35;27.35;;;;;;;4.51;61.08;96752.50;4995628;28;20122;-77
2023/03/03 02:48:38;;;;;;;45.30;26.48;;;;;;;4.51;61.19;96748.13;4993434;28;20050;-77
2023/03/03 02:51:06;;;;;;;48.63;26.50;;;;;;;4.48;60.85;96751.00;4993891;28;20145;-77
2023/03/03 02:53:33;;;;;;;49.85;27.10;;;;;;;4.43;60.76;96748.00;4993235;28;20050;-77
2023/03/03 02:56:03;;;;;;;44.78;26.30;;;;;;;4.40;61.49;96753.47;4994072;28;20050;-77
2023/03/03 02:58:30;;;;;;;46.03;27.90;;;;;;;4.39;61.42;96762.16;4993213;28;20062;-77
2023/03/03 03:00:58;;;;;;;45.10;26.27;;;;;;;4.38;61.34;96760.53;4993865;28;20050;-77
2023/03/03 03:03:26;;;;;;;48.55;26.38;;;;;;;4.38;61.58;96760.53;4993619;28;20133;-77
2023/03/03 03:05:53;;;;;;;47.58;26.58;;;;;;;4.38;61.27;96757.97;4994095;28;20137;-77
2023/03/03 03:08:21;;;;;;;46.53;28.00;;;;;;;4.38;61.63;96755.38;4992975;28;20065;-77
2023/03/03 03:10:49;;;;;;;45.10;27.05;;;;;;;4.38;61.48;96755.38;4993782;28;20054;-77
2023/03/03 03:13:17;;;;;;;46.20;26.15;;;;;;;4.37;62.50;96766.66;4993661;28;20428;-77
2023/03/03 03:15:45;;;;;;;47.17;26.83;;;;;;;4.42;62.03;96767.06;4993656;28;20304;-77
2023/03/03 03:18:13;;;;;;;47.38;28.20;;;;;;;4.43;61.94;96760.94;4992513;28;20058;-77
2023/03/03 03:20:41;;;;;;;45.42;28.52;;;;;;;4.43;61.39;96757.53;4993596;28;20086;-77
2023/03/03 03:23:09;;;;;;;46.30;28.65;;;;;;;4.40;61.37;96760.41;4993551;28;20050;-77
2023/03/03 03:25:44;;;;;;;46.03;27.65;;;;;;;4.34;61.59;96759.19;4993339;28;20137;-77
2023/03/03 03:28:12;;;;;;;45.15;27.33;;;;;;;4.28;61.60;96757.16;4992880;28;20475;-77
2023/03/03 03:30:41;;;;;;;44.65;26.55;;;;;;;4.25;62.19;96766.00;4993215;28;20559;-77
2023/03/03 03:33:09;;;;;;;47.20;27.48;;;;;;;4.25;61.77;96760.03;4993445;28;20086;-77
2023/03/03 03:35:39;;;;;;;42.80;26.02;;;;;;;4.23;62.49;96761.94;4993479;28;20543;-77
2023/03/03 03:38:06;;;;;;;46.15;27.58;;;;;;;4.24;61.91;96763.53;4992893;28;20180;-77
2023/03/03 03:40:34;;;;;;;50.83;28.70;;;;;;;4.24;62.01;96768.69;4993060;28;20081;-77
2023/03/03 03:43:01;;;;;;;46.90;26.70;;;;;;;4.23;62.04;96767.09;4993084;28;20141;-77
2023/03/03 03:45:29;;;;;;;49.10;28.75;;;;;;;4.24;62.64;96776.44;4993326;28;20054;-77
2023/03/03 03:47:58;;;;;;;48.20;26.48;;;;;;;4.26;62.57;96764.22;4992573;28;20046;-77
2023/03/03 03:50:26;;;;;;;48.47;28.80;;;;;;;4.29;61.54;96766.53;4993131;28;20064;-77
2023/03/03 03:52:54;;;;;;;46.08;28.13;;;;;;;4.27;62.07;96773.59;4993555;28;20134;-77
2023/03/03 03:55:22;;;;;;;44.05;27.10;;;;;;;4.30;62.33;96773.31;4993884;28;20456;-77
2023/03/03 03:57:50;;;;;;;50.38;28.58;;;;;;;4.26;61.53;96771.97;4992788;28;20050;-76
2023/03/03 04:00:18;;;;;;;46.83;29.58;;;;;;;4.24;62.08;96773.88;4993373;28;20050;-77
2023/03/03 04:02:45;;;;;;;49.38;29.85;;;;;;;4.23;61.91;96772.25;4993150;28;20133;-77
2023/03/03 04:05:14;;;;;;;48.08;28.50;;;;;;;4.19;61.56;96781.22;4995439;28;20058;-77
2023/03/03 04:07:42;;;;;;;48.50;29.13;;;;;;;4.17;62.21;96771.03;4997204;28;20056;-77
2023/03/03 04:10:10;;;;;;;46.28;28.83;;;;;;;4.19;62.30;96776.06;4997203;28;20057;-76
2023/03/03 04:12:38;;;;;;;50.05;29.95;;;;;;;4.15;61.92;96785.84;4997397;28;20085;-76
2023/03/03 04:15:07;;;;;;;46.92;26.92;;;;;;;4.11;62.68;96774.97;4997343;28;20398;-76
2023/03/03 04:17:35;;;;;;;48.08;29.33;;;;;;;4.09;62.19;96781.25;4996668;28;20054;-76
2023/03/03 04:20:04;;;;;;;51.95;28.95;;;;;;;4.09;62.16;96769.16;4996058;28;20058;-76
2023/03/03 04:22:34;;;;;;;55.83;30.67;;;;;;;4.06;62.28;96771.97;4997001;28;20046;-77
2023/03/03 04:25:04;;;;;;;47.08;27.85;;;;;;;4.02;62.88;96770.63;4997816;28;20431;-76
2023/03/03 04:27:32;;;;;;;48.10;27.83;;;;;;;4.04;62.59;96779.03;4997152;28;20054;-76
2023/03/03 04:29:59;;;;;;;50.25;28.20;;;;;;;4.03;62.18;96777.44;4995916;28;20050;-77
2023/03/03 04:32:27;;;;;;;49.10;28.90;;;;;;;4.02;61.90;96775.78;4996735;28;20424;-76
2023/03/03 04:34:55;;;;;;;49.25;28.73;;;;;;;4.00;62.20;96776.88;4996621;28;20671;-77
2023/03/03 04:37:37;;;;;;;59.35;32.25;;;;;;;3.95;61.84;96777.28;4996551;28;20468;-77
2023/03/03 04:40:06;;;;;;;51.78;29.33;;;;;;;3.88;62.18;96781.38;4995609;28;20050;-77
2023/03/03 04:42:34;;;;;;;51.47;30.05;;;;;;;3.80;61.81;96786.38;4995963;28;20504;-76
2023/03/03 04:45:02;;;;;;;53.15;29.92;;;;;;;3.70;62.19;96776.88;4996262;28;20056;-76
2023/03/03 04:47:30;;;;;;;55.05;31.48;;;;;;;3.62;62.30;96779.31;4996260;28;20065;-76
2023/03/03 04:49:57;;;;;;;54.25;31.70;;;;;;;3.53;62.34;96780.09;4995479;28;20149;-76
2023/03/03 04:52:25;;;;;;;53.85;30.45;;;;;;;3.45;62.18;96790.25;4996243;28;20137;-76
2023/03/03 04:54:54;;;;;;;50.88;30.35;;;;;;;3.32;62.63;96789.69;4996263;28;20499;-76
2023/03/03 04:57:21;;;;;;;50.83;30.05;;;;;;;3.23;62.86;96792.09;4996298;28;20137;-76
2023/03/03 04:59:50;;;;;;;53.20;31.48;;;;;;;3.17;63.30;96792.66;4995742;28;20128;-76
2023/03/03 05:02:18;;;;;;;56.20;32.40;;;;;;;3.17;62.98;96799.53;4996029;28;20512;-76
2023/03/03 05:04:45;;;;;;;53.20;30.27;;;;;;;3.15;63.22;96791.13;4996260;28;20050;-76
2023/03/03 05:07:13;;;;;;;55.67;31.58;;;;;;;3.12;63.45;96796.56;4995918;28;20508;-76
2023/03/03 05:09:40;;;;;;;48.47;28.15;;;;;;;3.08;63.60;96801.13;5005519;28;20054;-76
2023/03/03 05:12:09;;;;;;;50.95;30.10;;;;;;;3.08;63.91;96801.97;5006479;28;20046;-76
2023/03/03 05:14:38;;;;;;;58.22;32.05;;;;;;;3.11;63.41;96803.47;4996739;28;20588;-76
2023/03/03 05:17:05;;;;;;;51.15;30.00;;;;;;;3.16;64.02;96798.72;4995300;28;20102;-76
2023/03/03 05:19:33;;;;;;;49.70;29.92;;;;;;;3.18;63.08;96804.56;4995540;28;20512;-76
2023/03/03 05:22:01;;;;;;;62.13;31.00;;;;;;;3.21;64.01;96801.72;4995646;28;20482;-76
2023/03/03 05:24:29;;;;;;;50.33;29.00;;;;;;;3.33;64.22;96804.22;4995375;28;20595;-76
2023/03/03 05:26:56;;;;;;;54.90;31.38;;;;;;;3.45;63.26;96805.72;4995231;28;20050;-76
2023/03/03 05:29:27;;;;;;;56.20;31.27;;;;;;;3.47;62.74;96809.00;4994882;28;20090;-76
2023/03/03 05:31:55;;;;;;;53.42;30.17;;;;;;;3.48;62.67;96808.06;4995794;28;20042;-76
2023/03/03 05:34:22;;;;;;;48.90;29.05;;;;;;;3.52;63.06;96812.03;4996044;28;20054;-76
2023/03/03 05:36:50;;;;;;;52.08;29.58;;;;;;;3.52;62.44;96814.59;4995329;28;20416;-76
2023/03/03 05:39:18;;;;;;;54.05;28.73;;;;;;;3.42;62.06;96824.06;4985268;28;20053;-76
2023/03/03 05:41:45;;;;;;;56.38;30.75;;;;;;;3.39;62.24;96819.16;4995012;28;20050;-77
2023/03/03 05:44:13;;;;;;;53.30;29.63;;;;;;;3.33;62.20;96830.00;4995163;28;20413;-76
2023/03/03 05:46:42;;;;;;;56.40;31.95;;;;;;;3.24;62.34;96826.44;4995166;28;20081;-76
2023/03/03 05:49:09;;;;;;;58.83;29.83;;;;;;;3.15;62.75;96827.22;4995083;28;20050;-77
2023/03/03 05:51:37;;;;;;;54.55;30.27;;;;;;;3.06;63.11;96829.63;4994733;28;20065;-76
2023/03/03 05:54:05;;;;;;;55.90;31.88;;;;;;;3.02;63.18;96824.88;4995366;28;20050;-76
2023/03/03 05:56:32;;;;;;;62.03;32.55;;;;;;;3.02;63.62;96827.44;4995093;28;20476;-76
2023/03/03 05:59:00;;;;;;;61.83;33.92;;;;;;;3.08;63.98;96822.59;4975497;28;20060;-76
2023/03/03 06:01:28;;;;;;;58.05;32.25;;;;;;;3.17;64.04;96827.91;4987634;28;20050;-77
2023/03/03 06:03:57;;;;;;;60.25;32.80;;;;;;;3.26;64.40;96833.09;4995411;28;20081;-76
2023/03/03 06:06:24;;;;;;;59.38;33.58;;;;;;;3.36;64.56;96835.69;4995210;28;20077;-76
2023/03/03 06:08:52;;;;;;;58.72;32.72;;;;;;;3.48;64.85;96839.81;4974742;28;20141;-77
2023/03/03 06:11:23;;;;;;;54.03;31.38;;;;;;;3.61;65.08;96841.38;5046269;23;20076;-80
2023/03/03 06:13:51;;;;;;;51.80;32.33;;;;;;;3.72;64.59;96836.91;4976982;28;20050;-80
2023/03/03 06:16:19;;;;;;;51.78;29.90;;;;;;;3.78;64.42;96839.88;4985238;28;20083;-79
2023/03/03 06:18:47;;;;;;;51.10;30.73;;;;;;;3.79;64.22;96838.94;4975827;28;20499;-80
2023/03/03 06:21:16;;;;;;;59.47;34.25;;;;;;;3.77;63.17;96849.41;4982952;28;20057;-79
2023/03/03 06:23:44;;;;;;;55.30;31.42;;;;;;;3.74;63.40;96848.84;4979532;28;20394;-79
2023/03/03 06:26:11;;;;;;;50.50;29.58;;;;;;;3.71;63.44;96848.16;4996234;28;20081;-79
2023/03/03 06:28:39;;;;;;;51.63;29.58;;;;;;;3.74;63.83;96851.41;5015504;28;20094;-81
2023/03/03 06:31:06;;;;;;;48.25;28.45;;;;;;;3.80;63.58;96853.47;5014287;28;20106;-81
2023/03/03 06:33:34;;;;;;;50.08;29.63;;;;;;;3.85;62.71;96861.66;5008667;28;20145;-81
2023/03/03 06:36:02;;;;;;;51.70;30.23;;;;;;;3.87;62.72;96865.72;5000131;28;20050;-78
2023/03/03 06:38:33;;;;;;;54.85;31.13;;;;;;;3.85;62.62;96864.22;4994465;28;20061;-80
2023/03/03 06:41:06;;;;;;;52.75;31.30;;;;;;;3.81;62.87;96861.09;4980569;28;20054;-79
2023/03/03 06:43:33;;;;;;;57.22;32.75;;;;;;;3.79;62.80;96877.66;4991583;28;20105;-79
2023/03/03 06:46:01;;;;;;;54.17;31.48;;;;;;;3.74;62.64;96870.31;4994728;28;20076;-78
2023/03/03 06:48:29;;;;;;;53.65;30.00;;;;;;;3.72;63.04;96875.59;4994307;28;20523;-79
2023/03/03 06:50:57;;;;;;;58.15;31.90;;;;;;;3.76;63.55;96877.91;4994446;28;20052;-79
2023/03/03 06:53:26;;;;;;;54.95;32.47;;;;;;;3.73;63.14;96879.00;4991943;28;20101;-80
2023/03/03 06:55:58;;;;;;;57.88;33.22;;;;;;;3.71;63.68;96883.47;4985889;28;20051;-79
2023/03/03 06:58:26;;;;;;;56.10;32.47;;;;;;;3.66;62.99;96876.13;4989834;28;20539;-80
2023/03/03 07:00:56;;;;;;;59.80;32.75;;;;;;;3.64;63.40;96880.59;4999496;28;20047;-83
2023/03/03 07:03:27;;;;;;;47.70;28.48;;;;;;;3.68;63.96;96881.97;5002960;28;20065;-83
2023/03/03 07:05:54;;;;;;;45.65;28.92;;;;;;;3.77;64.45;96889.88;5009021;28;20085;-80
2023/03/03 07:08:24;;;;;;;53.92;32.00;;;;;;;3.83;63.98;96879.03;4989767;28;20046;-79
2023/03/03 07:10:52;;;;;;;54.03;31.98;;;;;;;3.86;63.58;96889.06;4995153;28;20157;-80
2023/03/03 07:13:24;;;;;;;52.42;32.17;;;;;;;3.88;63.37;96884.59;4995261;28;20046;-79
2023/03/03 07:15:54;;;;;;;58.10;33.65;;;;;;;3.87;63.17;96890.69;4985334;28;20054;-81
2023/03/03 07:18:39;;;;;;;56.22;32.53;;;;;;;3.87;64.36;96893.25;4993778;28;20050;-80
2023/03/03 07:21:16;;;;;;;59.03;32.38;;;;;;;3.90;65.22;96901.56;4983843;28;20086;-79
2023/03/03 07:23:44;;;;;;;57.10;33.95;;;;;;;3.94;63.67;96894.38;4989972;28;20050;-78
2023/03/03 07:26:14;;;;;;;59.88;34.70;;;;;;;3.92;63.33;96891.94;4993354;28;20058;-79
2023/03/03 07:28:45;;;;;;;55.67;31.15;;;;;;;3.88;63.96;96898.31;4988320;28;20053;-79
2023/03/03 07:31:33;;;;;;;60.45;32.95;;;;;;;3.90;63.88;96891.25;4983171;28;20042;-79
2023/03/03 07:34:04;;;;;;;53.35;32.30;;;;;;;3.90;63.17;96890.44;4992457;28;20501;-80
2023/03/03 07:36:37;;;;;;;54.20;31.63;;;;;;;3.93;64.24;96903.06;4981452;28;20097;-80
2023/03/03 07:39:25;;;;;;;54.75;30.88;;;;;;;3.98;64.76;96893.19;4983979;28;20052;-80
2023/03/03 07:41:54;;;;;;;56.70;33.30;;;;;;;4.04;63.44;96894.41;4989831;28;20058;-79
2023/03/03 07:44:31;;;;;;;59.20;32.58;;;;;;;4.02;63.93;96899.69;4993654;28;20046;-79
2023/03/03 07:46:59;;;;;;;53.08;31.38;;;;;;;4.02;63.97;96904.84;4993226;28;20137;-79
2023/03/03 07:49:35;;;;;;;51.38;29.08;;;;;;;4.08;64.13;96906.91;4992446;28;20133;-80
2023/03/03 07:52:21;;;;;;;58.17;33.28;;;;;;;4.09;63.59;96913.72;4989931;28;20066;-80
2023/03/03 07:54:49;;;;;;;48.55;30.98;;;;;;;4.13;64.11;96917.66;4986582;28;20054;-81
2023/03/03 07:57:22;;;;;;;53.72;32.38;;;;;;;4.20;64.52;96905.03;4982074;28;20053;-79
2023/03/03 07:59:52;;;;;;;51.95;31.73;;;;;;;4.32;63.60;96914.25;4994035;28;20114;-81
2023/03/03 08:02:34;;;;;;;60.05;31.90;;;;;;;4.30;63.41;96908.41;4994967;28;20363;-80
2023/03/03 08:05:26;;;;;;;56.25;32.50;;;;;;;4.30;63.43;96912.78;4975970;28;20047;-81
2023/03/03 08:07:55;;;;;;;47.30;30.08;;;;;;;4.38;63.19;96912.94;4978278;28;20417;-80
2023/03/03 08:10:34;;;;;;;57.25;34.75;;;;;;;4.43;62.72;96910.75;4980706;28;20055;-81
2023/03/03 08:13:15;;;;;;;54.13;30.73;;;;;;;4.45;63.45;96913.19;4975014;28;20055;-81
2023/03/03 08:15:45;;;;;;;49.10;30.25;;;;;;;4.61;63.32;96915.22;4995413;28;20070;-81
2023/03/03 08:18:22;;;;;;;54.17;31.38;;;;;;;4.75;62.24;96912.25;4998041;28;20054;-81
2023/03/03 08:20:52;;;;;;;52.58;30.83;;;;;;;4.84;62.05;96906.25;4985957;28;20050;-81
2023/03/03 08:23:20;;;;;;;53.20;32.15;;;;;;;4.92;61.74;96916.72;4992882;28;20054;-80
2023/03/03 08:25:49;;;;;;;54.40;32.78;;;;;;;4.94;61.74;96917.38;4994140;28;20052;-81
2023/03/03 08:28:18;;;;;;;56.40;32.53;;;;;;;4.92;61.71;96915.91;4980195;28;20057;-81
2023/03/03 08:30:48;;;;;;;52.03;31.20;;;;;;;4.87;62.71;96926.63;4981805;28;20050;-81
2023/03/03 08:33:17;;;;;;;55.20;33.47;;;;;;;4.86;62.47;96917.25;4975829;28;20086;-80
2023/03/03 08:35:45;;;;;;;54.97;31.88;;;;;;;4.83;62.44;96929.63;4980347;28;20054;-81
2023/03/03 08:38:15;;;;;;;50.88;31.00;;;;;;;4.83;62.69;96932.22;4993217;28;20054;-80
2023/03/03 08:40:43;;;;;;;53.03;32.28;;;;;;;4.89;62.83;96937.66;4993646;28;20137;-80
2023/03/03 08:43:13;;;;;;;51.28;31.00;;;;;;;4.97;62.56;96936.16;4994057;28;20078;-81
2023/03/03 08:45:40;;;;;;;47.92;30.58;;;;;;;5.03;62.55;96931.25;4987668;28;20060;-81
2023/03/03 08:48:09;;;;;;;49.80;32.40;;;;;;;5.10;62.17;96932.31;4992898;28;20062;-81
2023/03/03 08:50:38;;;;;;;47.95;30.50;;;;;;;5.14;61.64;96933.69;4994298;28;20129;-82
2023/03/03 08:53:06;;;;;;;52.20;31.95;;;;;;;5.19;61.80;96935.84;4978086;28;20053;-81
2023/03/03 08:55:34;;;;;;;50.63;30.88;;;;;;;5.19;61.73;96930.66;4977804;28;20137;-80
2023/03/03 08:58:02;;;;;;;55.00;32.38;;;;;;;5.20;61.35;96936.66;4984962;28;20137;-80
2023/03/03 09:00:30;;;;;;;56.90;32.38;;;;;;;5.19;61.68;96935.84;4989023;28;20050;-80
2023/03/03 09:02:58;;;;;;;49.30;31.35;;;;;;;5.22;61.70;96942.50;4993762;28;20050;-80
2023/03/03 09:05:30;;;;;;;49.80;30.48;;;;;;;5.32;61.89;96938.94;4984267;28;20050;-80
2023/03/03 09:08:12;;;;;;;50.90;31.00;;;;;;;5.45;60.97;96936.03;4978293;28;20420;-80
2023/03/03 09:10:40;;;;;;;47.50;29.42;;;;;;;5.49;60.87;96934.00;4996587;28;20077;-80
2023/03/03 09:13:14;;;;;;;51.95;30.80;;;;;;;5.58;61.28;96933.16;4996721;28;20077;-81
2023/03/03 09:16:01;;;;;;;46.35;28.50;;;;;;;5.69;59.83;96943.31;4984519;28;20122;-80
2023/03/03 09:21:53;;;;;;;44.58;27.65;;;;;;;5.86;59.09;96953.84;4995898;28;20145;-80
2023/03/03 09:24:35;;;;;;;44.40;27.23;;;;;;;5.88;57.96;96951.94;4997356;28;20046;-80
2023/03/03 09:27:15;;;;;;;39.22;24.83;;;;;;;5.91;58.89;96951.66;5017326;28;20050;-80
2023/03/03 09:29:42;;;;;;;41.60;25.58;;;;;;;5.97;58.44;96956.31;5020013;28;20054;-81
2023/03/03 09:32:33;;;;;;;37.65;24.98;;;;;;;6.00;56.84;96956.00;5065277;22;20065;-80
2023/03/03 09:35:26;;;;;;;44.67;26.88;;;;;;;6.03;56.94;96970.44;5001084;28;20110;-80
2023/03/03 09:37:55;;;;;;;40.13;26.65;;;;;;;6.03;56.79;96976.44;4999952;28;20054;-81
2023/03/03 09:40:47;;;;;;;42.05;26.58;;;;;;;6.01;57.61;96968.00;5013507;23;21087;-80
2023/03/03 09:43:22;;;;;;;39.13;24.23;;;;;;;5.99;56.29;96969.91;5018015;28;20069;-81
2023/03/03 09:46:04;;;;;;;38.45;24.17;;;;;;;6.00;55.60;96971.56;5016058;28;20496;-80
2023/03/03 09:48:47;;;;;;;37.72;23.90;;;;;;;6.04;55.00;96970.31;5016488;28;20042;-80
2023/03/03 09:51:46;;;;;;;41.67;25.50;;;;;;;6.05;55.16;96964.16;5015585;28;20073;-80
2023/03/03 09:54:37;;;;;;;39.53;24.75;;;;;;;6.09;54.99;96964.69;5016462;28;20100;-80
2023/03/03 09:57:14;;;;;;;41.83;25.45;;;;;;;6.16;55.31;96973.50;5015915;28;20054;-80
2023/03/03 10:03:38;;;;;;;35.40;22.40;;;;;;;6.31;53.72;96966.06;5016528;28;20393;-80
2023/03/03 10:06:26;;;;;;;37.85;22.10;;;;;;;6.30;53.66;96969.63;5013406;28;20496;-81
2023/03/03 10:09:35;;;;;;;39.95;23.63;;;;;;;6.28;53.20;96974.94;4997294;28;20101;-80
2023/03/03 10:15:44;;;;;;;38.92;23.17;;;;;;;6.28;54.07;96976.72;4984205;28;20425;-80
2023/03/03 10:21:35;;;;;;;35.35;22.23;;;;;;;6.44;53.50;96968.31;4974093;28;20047;-80
2023/03/03 10:30:43;;;;;;;31.83;20.65;;;;;;;6.47;53.01;96968.00;4976046;28;20421;-80
2023/03/03 10:33:41;;;;;;;35.28;22.85;;;;;;;6.50;52.80;96968.53;4996512;28;20046;-81
2023/03/03 10:36:25;;;;;;;36.38;23.10;;;;;;;6.51;52.29;96972.75;4997753;28;20062;-80
2023/03/03 10:39:10;;;;;;;32.95;21.13;;;;;;;6.52;53.61;96966.63;5000852;28;20061;-81
2023/03/03 10:41:52;;;;;;;31.20;21.35;;;;;;;6.60;52.51;96968.44;5013694;28;20046;-81
2023/03/03 10:44:40;;;;;;;34.83;21.15;;;;;;;6.69;52.31;96967.59;5007950;28;20050;-79
2023/03/03 10:47:32;;;;;;;33.72;21.52;;;;;;;6.74;51.30;96970.53;5007162;28;20053;-80
2023/03/03 10:50:12;;;;;;;29.92;20.13;;;;;;;6.76;51.22;96967.81;4984002;28;20517;-80
2023/03/03 10:52:48;;;;;;;32.05;20.23;;;;;;;6.81;52.44;96966.38;4977087;28;20043;-80
2023/03/03 10:55:45;;;;;;;33.58;20.27;;;;;;;6.90;50.45;96969.06;4995631;28;20061;-79
2023/03/03 11:01:26;;;;;;;30.45;20.85;;;;;;;7.08;49.81;96969.03;4976697;28;20059;-80
2023/03/03 11:04:29;;;;;;;29.33;18.95;;;;;;;7.19;51.10;96969.63;4995003;28;20580;-80
2023/03/03 11:07:04;;;;;;;27.48;19.20;;;;;;;7.30;49.83;96976.31;4991261;28;20054;-79
2023/03/03 11:10:01;;;;;;;31.38;20.10;;;;;;;7.38;48.41;96978.97;4983271;28;20081;-80
2023/03/03 11:12:46;;;;;;;35.53;19.95;;;;;;;7.43;48.79;96974.16;4980919;28;20050;-79
2023/03/03 11:15:52;;;;;;;32.30;20.17;;;;;;;7.57;48.61;96982.34;4993851;28;20066;-80
2023/03/03 11:18:33;;;;;;;38.80;20.77;;;;;;;7.65;50.39;96984.97;4975001;28;20134;-77
2023/03/03 11:21:24;;;;;;;33.20;21.02;;;;;;;7.71;48.55;96979.16;4993014;28;20041;-76
2023/03/03 11:24:02;;;;;;;31.98;19.20;;;;;;;7.77;47.94;96981.16;4992243;28;20046;-79
2023/03/03 11:26:59;;;;;;;29.77;18.58;;;;;;;7.86;47.96;96983.81;4993345;28;20133;-79
2023/03/03 11:29:39;;;;;;;32.70;19.40;;;;;;;7.97;47.89;96973.94;4970452;28;20149;-79
2023/03/03 11:32:20;;;;;;;30.63;18.70;;;;;;;8.10;47.15;96970.91;4989248;28;20050;-79
2023/03/03 11:35:00;;;;;;;31.60;20.45;;;;;;;8.22;46.63;96969.66;4977874;28;20109;-80
2023/03/03 11:37:39;;;;;;;30.83;19.52;;;;;;;8.34;46.80;96969.38;4985143;28;20093;-80
2023/03/03 11:40:16;;;;;;;28.45;18.60;;;;;;;8.50;46.30;96974.63;4987704;28;20415;-79
2023/03/03 11:42:56;;;;;;;30.15;19.20;;;;;;;8.66;46.41;96958.25;4984531;28;20046;-79
2023/03/03 11:45:29;;;;;;;27.58;18.60;;;;;;;8.82;46.04;96952.25;4994265;28;20053;-78
2023/03/03 11:48:11;;;;;;;28.95;19.00;;;;;;;8.97;45.82;96960.22;4992922;28;20050;-79
2023/03/03 11:50:46;;;;;;;28.58;18.90;;;;;;;9.17;45.41;96945.91;4993637;28;20061;-79
2023/03/03 11:53:27;;;;;;;28.63;18.20;;;;;;;9.30;44.94;96955.81;4995217;28;20054;-79
2023/03/03 11:55:58;;;;;;;27.88;19.60;;;;;;;9.45;45.43;96948.94;5005354;28;20125;-79
2023/03/03 11:58:31;;;;;;;32.58;20.80;;;;;;;9.64;44.75;96946.94;5000009;28;20504;-79
2023/03/03 12:01:13;;;;;;;29.25;19.73;;;;;;;9.77;44.35;96944.63;4985242;28;20050;-81
2023/03/03 12:03:49;;;;;;;31.42;20.17;;;;;;;10.00;44.40;96941.31;4991357;28;20054;-78
2023/03/03 12:06:26;;;;;;;26.02;18.48;;;;;;;10.39;44.16;96936.06;4993533;28;20130;-79
2023/03/03 12:09:03;;;;;;;26.38;18.90;;;;;;;10.99;42.50;96926.66;4992506;28;20051;-79
2023/03/03 12:11:36;;;;;;;28.33;20.67;;;;;;;11.59;41.39;96934.59;5013223;22;20055;-76
2023/03/03 12:14:17;;;;;;;30.45;19.45;;;;;;;12.09;40.34;96938.28;4982769;28;20505;-76
2023/03/03 12:16:55;;;;;;;27.45;19.83;;;;;;;12.47;39.80;96932.91;4989074;28;20046;-74